Time;durP1;ratioP1;P1;durP2;ratioP2;P2;SDS_P1;SDS_P2;PMS_P1;PMS_P2;Temp;Humidity;BMP_temperature;BMP_pressure;BME280_temperature;BME280_humidity;BME280_pressure;Samples;Min_cycle;Max_cycle;Signal;HPM_P1;HPM_P2
2023/07/17 07:43:35;;;;;;;11.82;5.38;;;;;;;22.53;51.05;96972.78;2085733;28;20569;-61
2023/07/17 07:45:44;;;;;;;15.80;6.70;;;;;;;22.83;50.37;96976.38;2103486;27;20537;-61
2023/07/17 07:47:51;;;;;;;16.60;4.90;;;;;;;22.69;49.22;96976.72;2091961;28;20553;-61
2023/07/17 07:50:00;;;;;;;34.60;15.73;;;;;;;22.80;49.52;96976.63;2087891;28;20540;-61
2023/07/17 07:52:21;;;;;;;18.20;12.10;;;;;;;22.74;49.54;96977.16;2086205;28;20565;-61
2023/07/17 07:53:23;;;;;;;53.10;46.15;;;;;;;22.72;48.88;96979.97;2087247;28;20862;-63
2023/07/17 07:54:24;;;;;;;200.88;126.53;;;;;;;22.48;49.04;96983.81;2083318;28;20207;-63
2023/07/17 07:56:48;;;;;;;33.70;24.40;;;;;;;22.90;49.39;96984.63;2104606;27;20563;-61
2023/07/17 07:57:50;;;;;;;28.58;11.70;;;;;;;23.12;49.03;96988.84;2104414;28;20587;-61
2023/07/17 07:58:52;;;;;;;66.03;56.95;;;;;;;23.08;48.75;96984.78;2104679;28;20653;-61
2023/07/17 07:59:54;;;;;;;30.05;23.48;;;;;;;22.89;48.97;96990.94;2103955;28;20765;-61
2023/07/17 08:00:55;;;;;;;46.30;35.25;;;;;;;22.93;49.20;96985.19;2101378;28;20214;-61
2023/07/17 08:01:57;;;;;;;34.58;20.33;;;;;;;23.10;48.72;96988.16;2096082;28;20198;-61
2023/07/17 08:02:58;;;;;;;30.40;24.52;;;;;;;23.44;49.00;96993.13;2096328;28;20666;-61
2023/07/17 08:04:00;;;;;;;26.38;17.98;;;;;;;23.54;48.53;96991.28;2096218;28;20635;-61
2023/07/17 08:05:03;;;;;;;37.58;29.42;;;;;;;23.52;48.41;96990.56;2096386;28;20208;-61
2023/07/17 08:06:04;;;;;;;38.35;29.10;;;;;;;23.41;47.83;96986.22;2092931;28;20231;-61
2023/07/17 08:07:07;;;;;;;43.05;34.58;;;;;;;23.67;48.21;96992.78;2088254;28;20196;-61
2023/07/17 08:08:08;;;;;;;37.83;31.98;;;;;;;23.98;48.08;96993.47;2088344;28;20262;-61
2023/07/17 08:09:09;;;;;;;39.03;30.38;;;;;;;24.39;47.63;96990.53;2088278;28;20684;-61
2023/07/17 08:10:11;;;;;;;44.17;33.83;;;;;;;24.55;47.33;96993.41;2088155;28;20235;-61
2023/07/17 08:11:12;;;;;;;70.03;60.45;;;;;;;24.31;47.16;96991.28;2086972;28;20253;-61
2023/07/17 08:12:14;;;;;;;51.67;46.20;;;;;;;23.85;47.06;96988.44;2087491;28;20239;-61
2023/07/17 08:13:15;;;;;;;49.47;44.42;;;;;;;23.99;46.96;96991.66;2087775;28;20704;-61
2023/07/17 08:14:17;;;;;;;93.82;84.15;;;;;;;24.18;46.99;96996.09;2087677;28;20196;-61
2023/07/17 08:15:18;;;;;;;53.38;46.95;;;;;;;24.52;46.90;96995.53;2087841;28;20667;-60
2023/07/17 08:16:20;;;;;;;86.65;78.72;;;;;;;24.13;47.26;96993.88;2091835;28;20219;-59
2023/07/17 08:17:22;;;;;;;100.32;90.88;;;;;;;23.94;47.56;96997.44;2095706;28;20222;-59
2023/07/17 08:18:23;;;;;;;245.85;227.73;;;;;;;23.79;47.59;96995.19;2095741;28;20344;-59
2023/07/17 08:20:30;;;;;;;827.45;761.50;;;;;;;23.25;48.06;96994.78;2083842;28;20591;-59
2023/07/17 08:22:41;;;;;;;700.30;647.97;;;;;;;23.28;48.56;96999.81;2086090;28;20553;-59
2023/07/17 08:23:43;;;;;;;821.42;754.55;;;;;;;23.03;48.38;97001.16;2083552;28;20212;-59
2023/07/17 08:24:44;;;;;;;573.60;530.60;;;;;;;22.94;48.77;96999.34;2079720;28;20212;-59
2023/07/17 08:25:46;;;;;;;292.33;270.48;;;;;;;22.77;49.25;97000.88;2078959;28;20193;-59
2023/07/17 08:26:47;;;;;;;130.52;120.50;;;;;;;22.80;49.56;96998.78;2075220;28;20225;-59
2023/07/17 08:27:49;;;;;;;139.98;127.90;;;;;;;23.00;49.15;96998.81;2075006;28;20296;-59
2023/07/17 08:28:51;;;;;;;683.00;621.42;;;;;;;23.27;48.97;96992.84;2074811;28;20822;-59
2023/07/17 08:29:52;;;;;;;269.63;249.80;;;;;;;23.13;48.50;97004.72;2075932;28;20208;-59
2023/07/17 08:30:54;;;;;;;694.10;635.42;;;;;;;23.14;48.30;97000.22;2074764;28;20208;-59
2023/07/17 08:31:55;;;;;;;885.95;812.03;;;;;;;22.81;48.42;96997.78;2073819;28;20232;-59
2023/07/17 08:32:58;;;;;;;404.80;375.23;;;;;;;22.94;49.01;97005.53;2074966;28;20209;-59
2023/07/17 08:34:01;;;;;;;421.30;391.50;;;;;;;23.08;48.73;96996.28;2077013;28;20196;-59
2023/07/17 08:35:03;;;;;;;1123.07;999.90;;;;;;;22.80;47.68;96992.59;2074349;28;20613;-59
2023/07/17 08:36:04;;;;;;;1000.97;914.75;;;;;;;22.89;47.99;96993.59;2074714;28;20256;-59
2023/07/17 08:37:06;;;;;;;965.38;884.40;;;;;;;22.90;48.24;96993.44;2077867;28;20202;-59
2023/07/17 08:38:07;;;;;;;887.10;813.42;;;;;;;22.86;48.55;97001.88;2073968;28;20524;-59
2023/07/17 08:39:09;;;;;;;715.92;660.85;;;;;;;22.89;48.72;96998.91;2075102;28;20205;-59
2023/07/17 08:40:11;;;;;;;651.35;602.03;;;;;;;23.11;48.53;96997.84;2074034;28;20569;-59
2023/07/17 08:41:13;;;;;;;1011.97;925.47;;;;;;;23.13;47.76;96998.53;2074566;28;20233;-59
2023/07/17 08:42:15;;;;;;;1040.22;951.85;;;;;;;23.33;48.39;97003.91;2074078;28;20353;-59
2023/07/17 08:43:16;;;;;;;1204.13;999.90;;;;;;;23.24;47.32;97002.94;2075007;28;20209;-59
2023/07/17 08:44:19;;;;;;;1119.40;999.90;;;;;;;23.28;47.78;97002.50;2075555;28;20266;-59
2023/07/17 08:45:23;;;;;;;1020.65;931.58;;;;;;;23.68;48.08;97005.16;2073205;28;20697;-59
2023/07/17 08:46:24;;;;;;;931.05;852.78;;;;;;;23.87;47.66;97001.59;2073099;28;20221;-59
2023/07/17 08:47:26;;;;;;;1057.18;962.63;;;;;;;24.28;47.38;97005.75;2072982;28;20216;-59
2023/07/17 08:48:28;;;;;;;1218.38;999.90;;;;;;;24.05;46.72;96999.94;2074350;28;20221;-59
2023/07/17 08:49:33;;;;;;;1269.60;999.90;;;;;;;23.76;46.24;97006.13;2075028;28;20532;-59
2023/07/17 08:50:35;;;;;;;1232.65;999.90;;;;;;;23.86;47.25;97008.78;2076283;28;20243;-60
2023/07/17 08:51:36;;;;;;;1287.25;999.90;;;;;;;23.77;46.61;97010.47;2072928;28;20252;-59
2023/07/17 08:52:39;;;;;;;1272.68;999.90;;;;;;;23.91;45.54;97003.03;2072242;28;20190;-59
2023/07/17 08:53:44;;;;;;;1256.30;999.90;;;;;;;24.10;44.95;97005.66;2073799;28;20520;-59
2023/07/17 08:54:46;;;;;;;1235.07;999.90;;;;;;;24.49;45.32;97007.34;2074836;28;20228;-59
2023/07/17 08:55:49;;;;;;;1240.57;999.90;;;;;;;24.58;44.79;97010.94;2074233;28;20193;-59
2023/07/17 08:56:51;;;;;;;1297.85;999.90;;;;;;;24.61;45.63;97013.34;2073500;28;20194;-59
2023/07/17 08:57:53;;;;;;;1272.65;999.90;;;;;;;24.30;45.42;97013.59;2073170;28;20194;-59
2023/07/17 08:58:56;;;;;;;1156.43;999.90;;;;;;;23.90;45.77;97012.00;2074548;28;20637;-59
2023/07/17 08:59:57;;;;;;;996.05;909.20;;;;;;;23.75;45.80;97008.94;2076653;28;20198;-59
2023/07/17 09:01:00;;;;;;;1068.10;972.50;;;;;;;23.62;46.17;97007.41;2073856;28;20205;-59
2023/07/17 09:02:03;;;;;;;1121.07;998.60;;;;;;;23.77;45.96;97007.81;2075247;28;20209;-59
2023/07/17 09:03:07;;;;;;;869.53;795.60;;;;;;;24.03;44.98;97001.06;2079652;28;20276;-59
2023/07/17 09:04:09;;;;;;;868.22;796.17;;;;;;;24.20;44.93;97002.97;2077501;28;20207;-59
2023/07/17 09:05:11;;;;;;;1125.40;999.90;;;;;;;24.45;45.63;97001.47;2073642;28;20193;-59
2023/07/17 09:06:13;;;;;;;1129.90;998.78;;;;;;;24.60;46.08;97001.81;2071562;28;20241;-61
2023/07/17 09:07:15;;;;;;;1117.03;997.22;;;;;;;24.40;46.00;97008.22;2075318;28;20263;-61
2023/07/17 09:08:16;;;;;;;1133.22;999.90;;;;;;;24.32;46.07;97008.13;2075018;28;20198;-61
2023/07/17 09:09:19;;;;;;;1017.45;923.25;;;;;;;24.54;45.96;97012.25;2073889;28;20197;-61
2023/07/17 09:10:22;;;;;;;929.08;848.55;;;;;;;24.99;45.12;97006.13;2078389;28;20211;-61
2023/07/17 09:11:23;;;;;;;949.13;865.38;;;;;;;25.26;44.85;97013.25;2074041;28;20225;-61
2023/07/17 09:12:25;;;;;;;847.55;774.42;;;;;;;24.86;44.87;97011.84;2075069;28;20206;-61
2023/07/17 09:13:36;;;;;;;873.63;800.80;;;;;;;25.07;44.62;97010.72;2071786;28;20730;-61
2023/07/17 09:14:39;;;;;;;827.97;757.63;;;;;;;24.85;45.00;97001.28;2076278;28;20795;-61
2023/07/17 09:15:41;;;;;;;838.80;766.80;;;;;;;24.92;45.20;97015.72;2075755;28;20198;-61
2023/07/17 09:16:42;;;;;;;1039.53;945.78;;;;;;;25.17;45.95;97008.81;2074080;28;20309;-61
2023/07/17 09:17:44;;;;;;;817.65;748.53;;;;;;;25.01;44.81;97009.47;2074138;28;20201;-62
2023/07/17 09:18:47;;;;;;;829.47;759.85;;;;;;;25.22;45.10;97001.19;2074333;28;20206;-62
2023/07/17 09:19:48;;;;;;;896.10;818.38;;;;;;;25.12;45.04;97003.09;2072752;28;20202;-62
2023/07/17 09:21:01;;;;;;;1007.13;915.13;;;;;;;25.35;44.44;97002.66;2072834;28;20286;-62
2023/07/17 09:22:05;;;;;;;806.20;738.60;;;;;;;26.05;44.70;96996.56;2077448;28;20611;-62
2023/07/17 09:23:06;;;;;;;853.17;781.08;;;;;;;25.67;45.01;96996.75;2075938;28;20708;-62
2023/07/17 09:24:09;;;;;;;745.95;681.90;;;;;;;25.29;45.17;96995.25;2076622;28;20201;-62
2023/07/17 09:25:12;;;;;;;835.10;762.42;;;;;;;25.65;44.77;97003.25;2074687;28;20499;-62
2023/07/17 09:26:15;;;;;;;903.50;823.13;;;;;;;25.56;44.46;96997.00;2074615;28;20217;-62
2023/07/17 09:27:17;;;;;;;1012.78;915.58;;;;;;;24.94;45.20;96997.75;2073784;28;20194;-62
2023/07/17 09:28:19;;;;;;;967.38;882.53;;;;;;;25.07;44.40;96998.19;2077056;28;20201;-63
2023/07/17 09:29:24;;;;;;;1219.38;999.90;;;;;;;25.11;44.65;97004.06;2076296;28;20194;-62
2023/07/17 09:30:27;;;;;;;911.78;831.45;;;;;;;25.86;44.48;96994.91;2072574;28;20201;-62
2023/07/17 09:31:30;;;;;;;1019.22;924.08;;;;;;;26.04;43.92;97002.88;2077478;28;20571;-62
2023/07/17 09:32:32;;;;;;;1135.63;999.90;;;;;;;25.56;43.88;96999.66;2078050;28;20231;-62
2023/07/17 09:33:37;;;;;;;1128.95;999.90;;;;;;;24.97;43.88;97000.09;2071512;28;20229;-62
2023/07/17 09:34:39;;;;;;;1044.60;946.15;;;;;;;24.98;45.31;96999.09;2069466;28;20270;-62
2023/07/17 09:35:54;;;;;;;903.47;825.67;;;;;;;25.45;45.51;96998.09;2068400;28;20195;-62
2023/07/17 09:36:55;;;;;;;959.05;873.33;;;;;;;25.68;45.13;96989.59;2068639;28;20308;-61
2023/07/17 09:37:57;;;;;;;973.58;885.75;;;;;;;25.69;44.42;96996.63;2069095;28;20205;-61
2023/07/17 09:38:59;;;;;;;1200.78;999.90;;;;;;;25.44;43.55;97007.09;2067467;28;20197;-62
2023/07/17 09:40:11;;;;;;;1096.55;991.58;;;;;;;25.18;44.51;96997.16;2067215;28;20249;-61
2023/07/17 09:41:24;;;;;;;1208.93;999.90;;;;;;;25.61;44.31;97002.75;2067970;28;20277;-62
2023/07/17 09:42:26;;;;;;;1111.03;996.45;;;;;;;26.05;44.16;97000.06;2070821;28;20573;-62
2023/07/17 09:43:31;;;;;;;1084.30;984.00;;;;;;;26.33;44.04;96999.88;2071539;28;20198;-60
2023/07/17 09:44:32;;;;;;;977.75;894.03;;;;;;;26.73;43.42;96998.44;2069475;28;20281;-60
2023/07/17 09:45:34;;;;;;;1272.82;999.90;;;;;;;26.27;43.05;96997.88;2069556;28;20229;-59
2023/07/17 09:46:37;;;;;;;1222.75;999.90;;;;;;;26.44;43.46;97003.31;2069451;28;20244;-60
2023/07/17 09:47:42;;;;;;;1094.05;989.10;;;;;;;26.21;43.28;96998.50;2067470;28;20542;-60
2023/07/17 09:48:44;;;;;;;1175.95;999.90;;;;;;;26.42;43.60;96999.94;2066276;28;20563;-60
2023/07/17 09:49:50;;;;;;;1241.28;999.90;;;;;;;26.59;43.63;97007.06;2068940;28;20195;-60
2023/07/17 09:50:52;;;;;;;1022.20;926.28;;;;;;;26.33;43.16;96999.06;2068719;28;20206;-60
2023/07/17 09:51:55;;;;;;;1184.97;999.90;;;;;;;25.91;43.20;97004.16;2069597;28;20664;-60
2023/07/17 09:52:58;;;;;;;1257.70;999.90;;;;;;;26.14;43.42;97002.81;2067105;28;20197;-60
2023/07/17 09:54:01;;;;;;;1139.28;999.90;;;;;;;26.39;44.74;97001.94;2066149;28;20201;-60
2023/07/17 09:55:03;;;;;;;1139.20;999.90;;;;;;;26.23;43.51;96997.34;2068746;28;20650;-60
2023/07/17 09:56:06;;;;;;;1104.03;994.85;;;;;;;25.70;43.74;96996.47;2065585;28;20222;-60
2023/07/17 09:57:09;;;;;;;1165.85;999.90;;;;;;;25.93;43.98;97004.00;2073284;28;20193;-60
2023/07/17 09:58:14;;;;;;;1153.53;999.90;;;;;;;26.46;44.09;96999.47;2068159;28;20199;-60
2023/07/17 09:59:21;;;;;;;1208.22;999.90;;;;;;;26.13;44.20;96996.63;2068774;28;20202;-60
2023/07/17 10:00:24;;;;;;;1112.90;999.90;;;;;;;26.46;44.76;96999.47;2069232;28;20198;-60
2023/07/17 10:01:27;;;;;;;1191.78;999.90;;;;;;;26.48;43.82;97000.13;2068729;28;20230;-60
2023/07/17 10:02:32;;;;;;;1140.93;999.90;;;;;;;26.39;43.51;96998.44;2065798;28;20569;-60
2023/07/17 10:03:35;;;;;;;1151.10;999.90;;;;;;;26.71;44.22;96995.03;2067478;28;20214;-60
2023/07/17 10:04:44;;;;;;;1223.70;999.90;;;;;;;26.85;44.10;97004.31;2067002;28;20873;-60
2023/07/17 10:05:46;;;;;;;1177.10;999.90;;;;;;;27.01;44.04;96998.19;2069018;28;20198;-60
2023/07/17 10:06:53;;;;;;;1202.95;999.90;;;;;;;27.34;42.88;96995.56;2068642;28;20195;-60
2023/07/17 10:07:55;;;;;;;1174.28;999.90;;;;;;;27.58;43.69;96999.31;2068966;28;20200;-60
2023/07/17 10:08:59;;;;;;;1266.60;999.90;;;;;;;27.66;42.77;97001.97;2066235;28;20202;-60
2023/07/17 10:10:01;;;;;;;976.28;891.28;;;;;;;27.34;42.24;96995.56;2067018;28;20203;-60
2023/07/17 10:11:04;;;;;;;995.20;896.90;;;;;;;27.45;42.48;96998.97;2068388;28;20200;-60
2023/07/17 10:12:06;;;;;;;1070.10;960.97;;;;;;;27.51;42.71;96993.75;2070026;28;20642;-60
2023/07/17 10:13:09;;;;;;;926.10;840.10;;;;;;;27.84;41.86;96996.44;2067333;28;20198;-60
2023/07/17 10:14:11;;;;;;;1467.30;999.90;;;;;;;26.93;42.81;96992.81;2067327;28;20681;-60
2023/07/17 10:15:14;;;;;;;1555.75;999.90;;;;;;;26.33;42.78;97007.09;2068861;28;20205;-60
2023/07/17 10:16:19;;;;;;;1083.50;960.47;;;;;;;26.15;43.77;96997.28;2066978;28;20719;-60
2023/07/17 10:17:29;;;;;;;1037.15;934.40;;;;;;;26.46;44.41;96999.47;2069274;28;20348;-60
2023/07/17 10:18:30;;;;;;;1127.15;999.15;;;;;;;26.83;43.53;96995.63;2068922;28;20566;-60
2023/07/17 10:19:44;;;;;;;1028.13;911.63;;;;;;;27.40;42.46;96987.91;2068510;28;20500;-60
2023/07/17 10:20:54;;;;;;;968.30;864.33;;;;;;;27.17;42.19;96993.84;2065360;28;20284;-60
2023/07/17 10:21:57;;;;;;;1302.65;999.90;;;;;;;26.82;43.27;96990.44;2069763;28;20296;-60
2023/07/17 10:22:58;;;;;;;1073.38;949.05;;;;;;;26.67;43.28;96995.53;2071468;28;20205;-60
2023/07/17 10:24:04;;;;;;;1419.32;999.90;;;;;;;26.48;42.35;96991.28;2068176;28;20646;-60
2023/07/17 10:25:09;;;;;;;1585.25;999.90;;;;;;;26.55;42.35;96993.16;2069548;28;20201;-60
2023/07/17 10:26:19;;;;;;;1752.72;999.90;;;;;;;26.86;42.70;96991.78;2069711;28;20232;-60
2023/07/17 10:27:37;;;;;;;1531.72;999.90;;;;;;;26.28;42.27;96991.50;2070107;28;20209;-60
2023/07/17 10:28:41;;;;;;;1571.20;999.90;;;;;;;25.88;42.51;96992.91;2067519;28;20707;-60
2023/07/17 10:29:46;;;;;;;1380.93;999.90;;;;;;;25.73;43.47;96982.78;2067653;28;20206;-60
2023/07/17 10:30:50;;;;;;;1480.65;999.90;;;;;;;26.00;43.04;96982.78;2070272;28;20238;-60
2023/07/17 10:31:52;;;;;;;875.67;790.22;;;;;;;26.04;43.36;96976.13;2069610;28;20201;-60
2023/07/17 10:33:06;;;;;;;1214.60;999.90;;;;;;;26.01;42.93;96987.16;2069443;28;20194;-60
2023/07/17 10:34:09;;;;;;;946.28;860.58;;;;;;;26.40;43.69;96992.09;2067828;28;20190;-60
2023/07/17 10:35:19;;;;;;;1155.07;952.75;;;;;;;26.42;42.70;96983.88;2068791;28;20233;-60
2023/07/17 10:36:43;;;;;;;1359.63;991.03;;;;;;;26.03;42.98;96983.31;2067108;28;20221;-60
2023/07/17 10:37:45;;;;;;;1080.28;972.08;;;;;;;26.15;43.87;96983.91;2066840;28;20201;-60
2023/07/17 10:38:51;;;;;;;818.42;745.30;;;;;;;26.53;42.85;96981.75;2069120;28;20597;-60
2023/07/17 10:40:06;;;;;;;1139.40;999.90;;;;;;;26.78;42.87;96973.84;2068693;28;20206;-60
2023/07/17 10:41:25;;;;;;;920.33;833.92;;;;;;;27.09;42.64;96978.59;2070649;28;20632;-60
2023/07/17 10:42:26;;;;;;;1236.78;963.20;;;;;;;26.86;42.41;96983.75;2067577;28;20194;-60
2023/07/17 10:43:28;;;;;;;1735.95;999.90;;;;;;;26.63;42.52;96981.63;2067782;28;20229;-60
2023/07/17 10:44:33;;;;;;;1432.95;999.90;;;;;;;26.36;42.81;96983.53;2068856;28;20202;-60
2023/07/17 10:45:35;;;;;;;1540.95;999.90;;;;;;;26.02;42.54;96975.47;2068565;28;20198;-60
2023/07/17 10:46:37;;;;;;;1388.18;999.90;;;;;;;26.38;42.46;96981.50;2070139;28;20218;-60
2023/07/17 10:47:39;;;;;;;1198.05;972.63;;;;;;;26.36;42.64;96969.28;2071127;28;20193;-60
2023/07/17 10:48:40;;;;;;;858.90;777.33;;;;;;;26.39;43.25;96971.66;2069712;28;20213;-60
2023/07/17 10:49:42;;;;;;;1269.32;999.90;;;;;;;26.43;42.41;96969.50;2069865;28;20255;-60
2023/07/17 10:50:50;;;;;;;1054.68;940.92;;;;;;;26.60;42.94;96970.41;2069461;28;20205;-61
2023/07/17 10:51:52;;;;;;;976.40;876.22;;;;;;;26.34;43.35;96971.31;2067986;28;20222;-61
2023/07/17 10:52:53;;;;;;;1081.18;978.65;;;;;;;26.85;43.45;96963.31;2066849;28;20245;-61
2023/07/17 10:53:56;;;;;;;1417.00;999.90;;;;;;;26.69;42.49;96969.44;2070630;28;20705;-60
2023/07/17 10:55:05;;;;;;;749.22;678.08;;;;;;;27.19;42.24;96967.75;2068913;28;20194;-61
2023/07/17 10:56:07;;;;;;;1051.00;942.90;;;;;;;27.59;42.12;96967.97;2068610;28;20300;-61
2023/07/17 10:57:09;;;;;;;1444.30;999.90;;;;;;;27.42;40.95;96957.22;2067657;28;20228;-61
2023/07/17 10:58:10;;;;;;;1481.93;999.90;;;;;;;27.11;42.23;96960.53;2069499;28;20877;-61
2023/07/17 10:59:13;;;;;;;1355.38;999.90;;;;;;;27.69;42.11;96963.25;2070760;28;20194;-61
2023/07/17 11:00:15;;;;;;;1544.85;999.90;;;;;;;27.66;41.52;96967.09;2068112;28;20764;-61
2023/07/17 11:01:17;;;;;;;1420.28;999.90;;;;;;;27.54;41.95;96966.63;2067334;28;20225;-61
2023/07/17 11:02:19;;;;;;;1505.28;999.90;;;;;;;27.90;41.94;96967.28;2068990;28;20289;-61
2023/07/17 11:03:22;;;;;;;1093.43;984.20;;;;;;;27.44;40.73;96959.75;2067741;28;20264;-61
2023/07/17 11:04:24;;;;;;;1274.32;999.90;;;;;;;27.36;41.38;96961.41;2068225;28;20233;-61
2023/07/17 11:05:26;;;;;;;1260.32;999.90;;;;;;;27.33;42.07;96966.25;2068675;28;20206;-61
2023/07/17 11:06:27;;;;;;;1184.72;997.50;;;;;;;27.12;43.39;96964.03;2067718;28;20221;-61
2023/07/17 11:07:36;;;;;;;1292.30;999.90;;;;;;;27.04;43.30;96968.38;2068679;28;20199;-61
2023/07/17 11:08:38;;;;;;;723.20;659.22;;;;;;;27.50;42.90;96959.94;2069237;28;20894;-60
2023/07/17 11:09:43;;;;;;;1114.85;999.90;;;;;;;27.97;42.76;96958.38;2067522;28;20196;-60
2023/07/17 11:10:45;;;;;;;1048.60;952.45;;;;;;;28.12;42.79;96961.19;2066972;28;20195;-59
2023/07/17 11:11:48;;;;;;;1011.90;919.90;;;;;;;28.37;42.83;96960.28;2068154;28;20293;-60
2023/07/17 11:12:50;;;;;;;819.63;745.90;;;;;;;28.65;42.15;96971.44;2067077;28;20643;-60
2023/07/17 11:13:54;;;;;;;914.13;826.17;;;;;;;28.84;41.54;96962.94;2068152;28;20717;-60
2023/07/17 11:14:56;;;;;;;1434.53;999.90;;;;;;;28.78;40.99;96963.66;2066882;28;20862;-60
2023/07/17 11:16:08;;;;;;;1547.32;999.90;;;;;;;28.98;41.39;96963.22;2067193;28;20198;-60
2023/07/17 11:17:11;;;;;;;1423.88;999.90;;;;;;;28.82;41.22;96940.81;2068101;28;20201;-60
2023/07/17 11:18:12;;;;;;;1427.85;999.90;;;;;;;28.88;41.30;96963.44;2068350;28;20205;-60
2023/07/17 11:19:14;;;;;;;1482.55;999.90;;;;;;;29.05;41.72;96966.88;2067125;28;20654;-60
2023/07/17 11:20:15;;;;;;;1445.38;999.90;;;;;;;28.99;40.68;96959.53;2068150;28;20198;-60
2023/07/17 11:21:20;;;;;;;1277.43;999.90;;;;;;;28.91;40.72;96959.56;2066162;28;20349;-60
2023/07/17 11:22:29;;;;;;;1465.35;999.90;;;;;;;29.27;40.67;96959.84;2068094;28;20631;-60
2023/07/17 11:23:31;;;;;;;918.90;839.13;;;;;;;28.29;41.35;96958.47;2067397;28;20228;-60
2023/07/17 11:24:32;;;;;;;1238.03;999.90;;;;;;;28.35;42.22;96965.81;2066285;28;20661;-60
2023/07/17 11:25:35;;;;;;;1268.05;999.90;;;;;;;28.35;42.00;96965.81;2068306;28;20214;-60
2023/07/17 11:26:38;;;;;;;1395.68;999.90;;;;;;;28.63;41.06;96963.56;2066954;28;20762;-60
2023/07/17 11:27:40;;;;;;;1442.95;999.90;;;;;;;28.74;41.37;96962.34;2066733;28;20209;-60
2023/07/17 11:28:42;;;;;;;1459.38;999.90;;;;;;;28.71;41.26;96960.03;2065649;28;20226;-60
2023/07/17 11:29:50;;;;;;;1244.38;999.90;;;;;;;28.86;41.51;96956.56;2066960;28;20289;-60
2023/07/17 11:30:52;;;;;;;1392.80;999.90;;;;;;;28.99;41.41;96957.66;2065825;28;20656;-59
2023/07/17 11:31:59;;;;;;;1342.95;999.90;;;;;;;29.12;41.26;96950.88;2066578;28;20586;-59
2023/07/17 11:33:04;;;;;;;1209.05;999.90;;;;;;;28.86;40.94;96952.03;2067634;28;20213;-59
2023/07/17 11:34:09;;;;;;;755.20;692.38;;;;;;;28.15;41.02;96955.50;2068028;28;20201;-59
2023/07/17 11:35:12;;;;;;;1044.40;939.15;;;;;;;27.84;41.98;96947.31;2070119;28;20201;-59
2023/07/17 11:36:17;;;;;;;1302.63;999.90;;;;;;;27.79;42.43;96949.66;2066592;28;20218;-59
2023/07/17 11:37:34;;;;;;;1298.45;999.90;;;;;;;27.88;42.40;96953.19;2067184;28;20201;-59
2023/07/17 11:38:35;;;;;;;1388.40;999.90;;;;;;;27.92;42.09;96954.50;2067965;28;20556;-60
2023/07/17 11:39:38;;;;;;;1370.47;999.90;;;;;;;27.81;41.62;96953.03;2067651;28;20202;-60
2023/07/17 11:40:59;;;;;;;1386.10;999.90;;;;;;;27.94;42.48;96955.19;2068290;28;20242;-60
2023/07/17 11:42:00;;;;;;;1353.53;999.90;;;;;;;28.55;41.16;96952.00;2067200;28;20260;-60
2023/07/17 11:43:05;;;;;;;1225.90;999.90;;;;;;;29.11;41.32;96960.78;2067865;28;20756;-60
2023/07/17 11:44:07;;;;;;;1420.60;999.90;;;;;;;29.00;41.07;96950.44;2066446;28;20214;-60
2023/07/17 11:45:09;;;;;;;1392.80;999.90;;;;;;;28.87;41.00;96955.56;2067538;28;20198;-60
2023/07/17 11:46:11;;;;;;;1324.97;999.90;;;;;;;28.56;41.59;96948.31;2067099;28;21016;-60
2023/07/17 11:47:12;;;;;;;1322.63;999.90;;;;;;;29.14;41.22;96959.56;2068462;28;20637;-60
2023/07/17 11:48:14;;;;;;;1371.18;999.90;;;;;;;28.65;41.14;96945.41;2067884;28;20205;-60
2023/07/17 11:49:16;;;;;;;1164.65;999.90;;;;;;;29.01;40.64;96952.09;2068757;28;20983;-60
2023/07/17 11:50:23;;;;;;;1006.42;908.90;;;;;;;28.42;41.43;96953.41;2068889;28;20198;-61
2023/07/17 11:51:25;;;;;;;1290.20;999.90;;;;;;;28.79;41.31;96946.53;2065985;28;20221;-61
2023/07/17 11:52:31;;;;;;;979.50;893.80;;;;;;;28.39;40.94;96947.53;2065872;28;20194;-61
2023/07/17 11:53:35;;;;;;;1268.53;999.90;;;;;;;28.48;41.08;96954.53;2067902;28;20432;-61
2023/07/17 11:54:37;;;;;;;1295.00;999.90;;;;;;;28.67;41.22;96943.41;2068037;28;20195;-61
2023/07/17 11:55:40;;;;;;;1356.22;999.90;;;;;;;28.70;41.32;96955.66;2067927;28;20201;-61
2023/07/17 11:56:43;;;;;;;989.97;894.00;;;;;;;28.29;41.59;96951.25;2067092;28;20228;-61
2023/07/17 11:57:50;;;;;;;1260.30;999.90;;;;;;;28.60;41.67;96957.69;2066722;28;20205;-61
2023/07/17 11:59:05;;;;;;;1239.65;999.90;;;;;;;28.81;41.03;96951.72;2066143;28;20198;-61
2023/07/17 12:00:07;;;;;;;1276.03;999.90;;;;;;;28.95;40.70;96952.81;2067118;28;20201;-61
2023/07/17 12:01:08;;;;;;;1352.95;999.90;;;;;;;28.49;41.19;96938.28;2067593;28;21364;-61
2023/07/17 12:02:10;;;;;;;1305.60;999.90;;;;;;;28.34;41.59;96948.03;2068598;28;20198;-61
2023/07/17 12:03:12;;;;;;;1174.18;999.90;;;;;;;27.84;41.87;96939.28;2067535;28;20241;-61
2023/07/17 12:04:17;;;;;;;1056.13;948.55;;;;;;;27.63;42.46;96940.66;2067527;28;20210;-60
2023/07/17 12:05:19;;;;;;;1376.85;999.90;;;;;;;27.63;42.25;96945.16;2067078;28;20198;-60
2023/07/17 12:06:21;;;;;;;1294.43;999.90;;;;;;;27.49;42.64;96935.94;2067314;28;20268;-60
2023/07/17 12:07:22;;;;;;;1297.75;999.90;;;;;;;27.20;42.50;96935.41;2069466;28;20197;-60
2023/07/17 12:08:24;;;;;;;1205.07;999.90;;;;;;;27.89;42.82;96928.84;2068099;28;20198;-60
2023/07/17 12:09:26;;;;;;;1090.18;981.15;;;;;;;27.92;42.86;96930.38;2067224;28;20209;-61
2023/07/17 12:10:27;;;;;;;1114.90;999.90;;;;;;;28.39;42.99;96940.34;2066044;28;20206;-62
2023/07/17 12:11:29;;;;;;;1378.95;999.90;;;;;;;28.76;41.37;96935.28;2064677;28;20222;-62
2023/07/17 12:12:33;;;;;;;1307.10;999.90;;;;;;;28.52;41.90;96929.03;2067223;28;20194;-62
2023/07/17 12:13:34;;;;;;;1303.88;999.90;;;;;;;28.93;41.56;96934.19;2066685;28;20209;-62
2023/07/17 12:14:36;;;;;;;1262.40;999.90;;;;;;;29.49;40.64;96928.59;2070329;28;20329;-62
2023/07/17 12:15:37;;;;;;;1497.57;999.90;;;;;;;29.23;40.85;96930.78;2067563;28;20562;-62
2023/07/17 12:16:39;;;;;;;1350.97;999.90;;;;;;;28.81;41.10;96930.22;2067541;28;20276;-62
2023/07/17 12:17:40;;;;;;;1251.15;999.90;;;;;;;28.32;41.77;96931.28;2066974;28;20198;-62
2023/07/17 12:18:42;;;;;;;1322.82;999.90;;;;;;;28.18;41.83;96939.03;2068293;28;20202;-62
2023/07/17 12:19:43;;;;;;;1334.68;999.90;;;;;;;28.54;42.41;96928.84;2070156;28;20751;-62
2023/07/17 12:20:44;;;;;;;1032.68;935.83;;;;;;;28.82;42.42;96938.13;2068491;28;20195;-62
2023/07/17 12:21:48;;;;;;;1102.07;995.08;;;;;;;29.25;41.76;96934.16;2066386;28;20221;-62
2023/07/17 12:22:51;;;;;;;1271.32;999.90;;;;;;;29.44;40.45;96932.84;2065514;28;20688;-62
2023/07/17 12:23:53;;;;;;;1186.65;999.90;;;;;;;29.59;41.74;96932.91;2067185;28;20205;-62
2023/07/17 12:24:56;;;;;;;1306.53;999.90;;;;;;;29.61;41.44;96925.47;2068593;28;20209;-62
2023/07/17 12:25:58;;;;;;;1301.88;999.90;;;;;;;30.15;40.80;96926.31;2067063;28;20205;-62
2023/07/17 12:26:59;;;;;;;1256.27;999.90;;;;;;;29.91;40.17;96926.38;2068766;28;20638;-63
2023/07/17 12:28:01;;;;;;;1282.55;999.90;;;;;;;29.15;40.43;96935.22;2068335;28;20457;-63
2023/07/17 12:29:03;;;;;;;1218.03;999.90;;;;;;;29.68;41.53;96934.47;2066843;28;20202;-62
2023/07/17 12:30:05;;;;;;;1363.70;999.90;;;;;;;29.75;40.51;96926.50;2066572;28;20834;-62
2023/07/17 12:31:07;;;;;;;882.80;807.70;;;;;;;29.29;40.42;96927.41;2066711;28;20229;-62
2023/07/17 12:32:08;;;;;;;1394.07;999.90;;;;;;;28.95;41.51;96929.50;2068633;28;20490;-62
2023/07/17 12:33:11;;;;;;;1298.63;999.90;;;;;;;29.19;40.78;96934.84;2069275;28;20475;-62
2023/07/17 12:34:12;;;;;;;905.47;822.05;;;;;;;29.52;40.89;96924.69;2066045;28;20481;-62